Time;durP1;ratioP1;P1;durP2;ratioP2;P2;SDS_P1;SDS_P2;PMS_P1;PMS_P2;Temp;Humidity;BMP_temperature;BMP_pressure;BME280_temperature;BME280_humidity;BME280_pressure;Samples;Min_cycle;Max_cycle;Signal;HPM_P1;HPM_P2
2022/06/19 00:01:26;;;;;;;6.35;2.33;;;;;;;21.52;55.53;96101.88;4930680;29;20417;-85
2022/06/19 00:03:56;;;;;;;4.72;2.30;;;;;;;21.47;55.02;96102.28;4933825;29;20052;-85
2022/06/19 00:08:48;;;;;;;6.15;2.55;;;;;;;21.36;54.48;96088.41;5017720;23;20033;-83
2022/06/19 00:11:18;;;;;;;4.38;2.70;;;;;;;21.26;54.35;96085.59;4915545;29;20072;-84
2022/06/19 00:13:45;;;;;;;3.80;2.50;;;;;;;21.24;54.58;96076.88;4949463;23;20065;-86
2022/06/19 00:16:12;;;;;;;5.03;2.53;;;;;;;21.19;54.95;96085.56;4940378;23;20048;-82
2022/06/19 00:18:40;;;;;;;5.00;2.72;;;;;;;21.15;55.07;96073.72;4933307;29;20075;-84
2022/06/19 00:26:08;;;;;;;6.00;3.17;;;;;;;21.06;55.65;96065.78;5120332;23;20064;-84
2022/06/19 00:28:35;;;;;;;6.13;2.97;;;;;;;21.04;55.76;96068.19;4911846;29;20045;-84
2022/06/19 00:31:02;;;;;;;4.65;2.80;;;;;;;21.02;55.68;96054.69;4913084;29;20063;-79
2022/06/19 00:33:28;;;;;;;5.85;2.72;;;;;;;21.01;56.14;96050.34;4917700;29;20048;-85
2022/06/19 00:35:57;;;;;;;5.10;2.50;;;;;;;21.00;56.33;96046.00;4917703;29;20049;-84
2022/06/19 00:38:24;;;;;;;5.88;2.53;;;;;;;20.97;56.23;96038.47;4911741;29;20100;-83
2022/06/19 00:40:51;;;;;;;3.63;2.33;;;;;;;20.99;56.11;96036.13;4914585;29;20048;-85
2022/06/19 00:43:18;;;;;;;5.68;2.70;;;;;;;20.92;56.44;96027.81;4883056;29;20067;-85
2022/06/19 00:45:49;;;;;;;6.40;2.88;;;;;;;20.83;56.32;96022.66;4899839;29;20040;-84
2022/06/19 00:48:19;;;;;;;6.63;2.70;;;;;;;20.79;56.32;96013.56;4898986;29;20055;-85
2022/06/19 00:50:49;;;;;;;6.90;3.38;;;;;;;20.74;56.72;96010.38;4899673;29;20053;-84
2022/06/19 00:53:21;;;;;;;6.32;2.47;;;;;;;20.71;56.72;96002.84;4975390;23;20072;-85
2022/06/19 00:56:16;;;;;;;5.65;2.92;;;;;;;20.64;56.83;96000.09;4931677;29;20138;-85
2022/06/19 00:58:46;;;;;;;6.78;2.92;;;;;;;20.62;57.29;95999.66;4929678;29;20051;-85
2022/06/19 01:01:16;;;;;;;6.65;3.13;;;;;;;20.47;57.75;96002.41;4930780;29;20071;-85
2022/06/19 01:03:52;;;;;;;6.72;2.70;;;;;;;20.49;57.55;95997.28;4931242;29;20055;-85
2022/06/19 01:06:21;;;;;;;11.75;3.35;;;;;;;20.42;57.56;95991.72;4930624;29;20048;-84
2022/06/19 01:08:50;;;;;;;5.03;2.75;;;;;;;20.43;57.59;95985.00;4930369;29;20131;-84
2022/06/19 01:11:17;;;;;;;5.90;2.78;;;;;;;20.44;57.89;95981.03;4930084;29;20048;-84
2022/06/19 01:13:44;;;;;;;6.68;2.92;;;;;;;20.43;58.09;95973.13;4981917;23;20048;-85
2022/06/19 01:16:13;;;;;;;4.93;2.80;;;;;;;20.42;58.21;95972.34;4930079;29;20052;-84
2022/06/19 01:18:44;;;;;;;5.72;3.03;;;;;;;20.43;58.82;95970.38;4930958;29;20060;-85
2022/06/19 01:21:17;;;;;;;4.85;3.00;;;;;;;20.36;58.61;95965.63;4929468;29;20087;-84
2022/06/19 01:23:53;;;;;;;6.30;3.33;;;;;;;20.30;58.31;95962.41;4934628;29;20050;-85
2022/06/19 01:26:23;;;;;;;5.22;2.50;;;;;;;20.30;58.04;95959.66;4963393;23;20037;-85
2022/06/19 01:28:56;;;;;;;10.23;2.85;;;;;;;20.25;58.28;95946.22;5034934;23;20080;-85
2022/06/19 01:31:27;;;;;;;9.15;2.97;;;;;;;20.22;58.70;95949.78;4910576;29;20048;-83
2022/06/19 01:33:59;;;;;;;11.10;2.90;;;;;;;20.19;58.50;95942.25;4911332;29;20131;-86
2022/06/19 01:39:00;;;;;;;5.37;2.83;;;;;;;20.01;59.09;95936.66;5001667;23;20072;-85
2022/06/19 01:41:31;;;;;;;7.20;3.30;;;;;;;19.88;59.66;95926.34;4991438;23;20064;-86
2022/06/19 01:43:59;;;;;;;7.90;3.17;;;;;;;19.83;60.11;95919.22;5131285;23;20551;-86
2022/06/19 01:46:28;;;;;;;6.75;3.30;;;;;;;19.80;59.94;95914.47;4926544;29;20037;-85
2022/06/19 01:48:57;;;;;;;7.47;3.35;;;;;;;19.76;60.31;95914.47;4928114;23;20056;-85
2022/06/19 01:51:25;;;;;;;8.95;3.28;;;;;;;19.77;60.12;95893.16;5026283;23;20048;-84
2022/06/19 01:53:58;;;;;;;6.20;3.33;;;;;;;19.77;60.34;95898.66;4940883;29;20116;-85
2022/06/19 01:56:26;;;;;;;5.82;3.08;;;;;;;19.80;60.19;95892.38;4922923;29;20040;-86
2022/06/19 01:58:59;;;;;;;5.95;3.17;;;;;;;19.80;60.33;95897.91;4923967;29;20083;-85
2022/06/19 02:03:55;;;;;;;4.35;2.42;;;;;;;19.84;61.31;95884.91;4946243;23;20079;-84
2022/06/19 02:06:34;;;;;;;6.60;3.10;;;;;;;19.82;60.71;95884.47;4984293;23;20052;-83
2022/06/19 02:09:03;;;;;;;10.02;3.03;;;;;;;19.74;60.61;95877.38;4922808;29;20051;-83
2022/06/19 02:11:33;;;;;;;6.65;3.25;;;;;;;19.69;60.85;95869.44;4933753;29;20056;-84
2022/06/19 02:14:02;;;;;;;9.13;3.60;;;;;;;19.60;60.94;95860.72;4946745;23;20060;-85
2022/06/19 02:16:33;;;;;;;7.03;3.47;;;;;;;19.51;61.59;95861.84;4939045;29;20078;-85
2022/06/19 02:19:00;;;;;;;6.45;3.50;;;;;;;19.53;61.89;95856.72;4931232;29;20059;-84
2022/06/19 02:21:36;;;;;;;7.57;3.40;;;;;;;19.59;62.82;95861.88;4922210;29;20135;-85
2022/06/19 02:24:04;;;;;;;9.38;3.47;;;;;;;19.56;62.70;95866.19;4939494;29;20036;-77
2022/06/19 02:26:31;;;;;;;5.75;3.13;;;;;;;19.56;62.83;95868.97;4938815;29;20048;-84
2022/06/19 02:28:59;;;;;;;9.65;3.75;;;;;;;19.50;62.17;95885.09;4982980;23;20049;-86
2022/06/19 02:31:27;;;;;;;11.40;3.90;;;;;;;19.41;62.11;95887.41;4937285;29;20064;-83
2022/06/19 02:33:59;;;;;;;8.18;3.55;;;;;;;19.33;62.49;95885.81;4938934;29;20056;-85
2022/06/19 02:36:39;;;;;;;6.70;3.20;;;;;;;19.32;63.06;95881.47;4936742;29;20067;-83
2022/06/19 02:39:25;;;;;;;6.63;3.40;;;;;;;19.37;63.44;95875.59;4921983;29;20048;-84
2022/06/19 02:42:00;;;;;;;7.10;3.33;;;;;;;19.40;63.45;95880.31;4922336;29;20115;-85
2022/06/19 02:44:33;;;;;;;8.68;3.60;;;;;;;19.33;63.53;95885.81;4938008;29;20059;-85
2022/06/19 02:47:01;;;;;;;11.43;3.22;;;;;;;19.30;63.92;95879.09;4994684;23;20040;-85
2022/06/19 02:49:28;;;;;;;8.68;3.50;;;;;;;19.39;64.51;95884.28;4938584;29;20060;-82
2022/06/19 02:51:55;;;;;;;4.40;2.92;;;;;;;19.35;63.88;95879.91;4939631;29;20435;-84
2022/06/19 02:54:22;;;;;;;5.22;3.65;;;;;;;19.31;63.87;95874.34;4937726;29;20116;-84
2022/06/19 02:56:48;;;;;;;8.55;3.80;;;;;;;18.95;64.38;95870.56;4938810;29;20068;-84
2022/06/19 02:59:15;;;;;;;7.40;2.95;;;;;;;19.00;64.31;95872.97;4916188;29;20120;-84
2022/06/19 03:01:44;;;;;;;5.80;3.30;;;;;;;19.02;63.91;95871.44;4934705;29;20048;-84
2022/06/19 03:04:18;;;;;;;5.00;3.00;;;;;;;19.03;63.92;95856.44;4932845;29;20064;-86
2022/06/19 03:06:45;;;;;;;8.38;3.10;;;;;;;18.60;63.89;95838.78;4938692;29;20035;-85
2022/06/19 03:09:12;;;;;;;5.90;3.10;;;;;;;18.64;64.57;95823.06;4938413;29;20079;-86
2022/06/19 03:11:39;;;;;;;7.13;3.15;;;;;;;18.61;64.75;95825.78;4971825;23;20044;-85
2022/06/19 03:14:12;;;;;;;6.93;3.08;;;;;;;18.69;64.80;95819.19;4938935;29;20040;-84
2022/06/19 03:16:39;;;;;;;8.45;3.58;;;;;;;18.65;65.57;95830.16;4938395;29;20036;-83
2022/06/19 03:19:07;;;;;;;6.07;3.65;;;;;;;18.67;65.72;95825.03;4938671;28;20068;-84
2022/06/19 03:21:37;;;;;;;11.55;4.05;;;;;;;18.56;65.98;95826.16;4925591;29;20115;-86
2022/06/19 03:24:04;;;;;;;9.18;3.60;;;;;;;18.40;67.03;95835.47;4938203;29;20052;-80
2022/06/19 03:26:31;;;;;;;7.82;4.45;;;;;;;18.31;67.67;95832.25;4939324;29;20099;-85
2022/06/19 03:28:58;;;;;;;9.60;4.30;;;;;;;18.33;68.13;95834.63;4936014;29;20054;-85
2022/06/19 03:31:27;;;;;;;8.77;4.10;;;;;;;18.36;68.04;95840.16;4934972;29;20044;-84
2022/06/19 03:33:54;;;;;;;8.13;4.20;;;;;;;18.34;68.39;95837.00;4939206;29;20040;-84
2022/06/19 03:36:22;;;;;;;11.20;4.55;;;;;;;18.29;68.62;95839.31;4938590;29;20078;-85
2022/06/19 03:38:51;;;;;;;8.95;4.75;;;;;;;18.32;68.50;95839.34;4937343;29;20112;-85
2022/06/19 03:41:18;;;;;;;9.43;3.95;;;;;;;18.36;68.76;95850.41;4936655;29;20072;-84
2022/06/19 03:43:45;;;;;;;7.38;3.80;;;;;;;18.39;68.31;95844.13;4937851;29;20064;-85
2022/06/19 03:46:15;;;;;;;5.95;3.67;;;;;;;18.42;68.12;95846.91;4938182;29;20124;-83
2022/06/19 03:48:43;;;;;;;7.25;4.10;;;;;;;18.41;68.43;95848.09;4937505;29;20052;-85
2022/06/19 03:51:23;;;;;;;7.05;3.90;;;;;;;18.48;68.41;95847.38;4936900;29;20064;-81
2022/06/19 03:53:53;;;;;;;7.15;3.92;;;;;;;18.53;68.90;95849.75;4961401;23;20111;-82
2022/06/19 03:56:23;;;;;;;9.15;3.75;;;;;;;18.54;68.75;95850.56;4928018;29;20119;-84
2022/06/19 03:58:51;;;;;;;8.38;3.80;;;;;;;18.56;68.40;95848.22;5087567;23;20059;-84
2022/06/19 04:03:55;;;;;;;9.88;4.15;;;;;;;18.44;68.55;95847.34;4994320;23;20037;-84
2022/06/19 04:06:24;;;;;;;7.55;4.00;;;;;;;18.47;67.99;95849.31;4931369;29;20076;-85
2022/06/19 04:08:52;;;;;;;5.80;3.40;;;;;;;18.50;68.37;95853.28;4931128;29;20064;-85
2022/06/19 04:11:21;;;;;;;5.00;3.58;;;;;;;18.57;68.77;95858.06;4925125;29;20052;-84
2022/06/19 04:13:49;;;;;;;7.38;4.20;;;;;;;18.57;69.19;95860.81;4998769;23;20048;-85
2022/06/19 04:16:19;;;;;;;6.45;3.50;;;;;;;18.55;68.58;95863.19;4920639;29;20032;-85
2022/06/19 04:18:46;;;;;;;5.78;3.65;;;;;;;18.57;68.86;95858.06;4936531;29;20044;-85
2022/06/19 04:21:15;;;;;;;6.18;3.25;;;;;;;18.58;69.06;95856.88;5245381;23;20063;-85
2022/06/19 04:23:43;;;;;;;6.90;3.75;;;;;;;18.59;69.88;95852.97;4919712;29;20112;-85
2022/06/19 04:28:45;;;;;;;7.25;3.47;;;;;;;18.60;69.59;95849.03;4919615;29;20065;-85
2022/06/19 04:33:40;;;;;;;6.15;3.50;;;;;;;18.62;69.27;95857.72;5348288;23;20030;-83
2022/06/19 04:38:44;;;;;;;7.75;3.67;;;;;;;18.59;69.89;95853.75;5355791;23;20044;-86
2022/06/19 04:41:14;;;;;;;9.40;3.83;;;;;;;18.60;70.53;95851.78;4936201;29;20063;-84
2022/06/19 04:43:42;;;;;;;5.43;3.58;;;;;;;18.64;71.34;95849.88;4936469;29;20048;-84
2022/06/19 04:46:12;;;;;;;7.97;4.32;;;;;;;18.68;71.21;95845.16;4919898;29;20052;-84
2022/06/19 04:48:39;;;;;;;6.18;3.35;;;;;;;18.73;71.02;95853.09;4961922;23;20055;-84
2022/06/19 04:51:08;;;;;;;9.30;3.60;;;;;;;18.80;70.18;95844.88;4934330;29;20074;-84
2022/06/19 04:53:37;;;;;;;4.93;3.22;;;;;;;18.86;70.34;95846.09;4936271;29;20067;-85
2022/06/19 04:56:05;;;;;;;6.60;3.63;;;;;;;18.89;69.73;95842.56;4934957;29;20048;-84
2022/06/19 05:00:57;;;;;;;4.63;3.10;;;;;;;18.96;67.95;95837.09;4942662;23;20055;-84
2022/06/19 05:03:26;;;;;;;4.97;3.03;;;;;;;19.05;67.85;95842.25;4934941;29;20092;-84
2022/06/19 05:05:54;;;;;;;4.93;2.88;;;;;;;19.15;69.53;95844.28;4935073;29;20039;-84
2022/06/19 05:08:21;;;;;;;6.68;3.53;;;;;;;19.20;70.51;95856.94;5008403;23;20075;-85
2022/06/19 05:10:50;;;;;;;6.43;3.50;;;;;;;19.28;70.53;95853.06;5060753;23;20063;-84
2022/06/19 05:13:19;;;;;;;5.80;3.53;;;;;;;19.33;70.23;95847.16;5810978;23;20058;-80
2022/06/19 05:15:46;;;;;;;5.68;3.42;;;;;;;19.33;70.46;95858.22;5247243;23;20068;-86
2022/06/19 05:18:14;;;;;;;6.50;3.20;;;;;;;19.33;67.98;95833.38;5227649;23;20065;-80
2022/06/19 05:23:17;;;;;;;8.48;3.15;;;;;;;19.49;67.05;95833.81;5189587;23;20080;-83
2022/06/19 05:25:44;;;;;;;7.97;2.90;;;;;;;19.58;67.83;95846.50;4920533;29;20032;-85
2022/06/19 05:28:11;;;;;;;7.90;3.60;;;;;;;19.64;67.97;95839.44;4922622;29;20068;-82
2022/06/19 05:30:38;;;;;;;7.68;3.75;;;;;;;19.64;66.89;95833.91;5212757;23;22142;-84
2022/06/19 05:33:05;;;;;;;7.93;3.50;;;;;;;19.72;65.94;95849.31;4935566;29;20067;-84
2022/06/19 05:35:32;;;;;;;6.97;3.25;;;;;;;19.80;65.33;95842.66;4919673;29;20064;-85
2022/06/19 05:37:59;;;;;;;9.48;3.38;;;;;;;19.86;65.51;95852.13;4936362;29;20083;-84
2022/06/19 05:40:27;;;;;;;9.70;3.90;;;;;;;19.67;63.30;95844.19;4935301;29;20056;-84
2022/06/19 05:42:54;;;;;;;8.75;3.78;;;;;;;19.78;64.86;95850.53;4969558;23;20055;-83
2022/06/19 05:45:21;;;;;;;6.72;3.50;;;;;;;19.65;63.27;95847.34;4930795;29;20075;-84
2022/06/19 05:47:54;;;;;;;13.60;4.00;;;;;;;19.96;63.67;95845.84;4936131;29;20123;-85
2022/06/19 05:50:22;;;;;;;7.97;3.33;;;;;;;20.08;64.29;95845.47;4910803;29;20056;-85
2022/06/19 05:52:49;;;;;;;13.00;3.38;;;;;;;20.17;65.45;95836.03;5024262;23;20057;-79
2022/06/19 05:55:16;;;;;;;10.35;3.42;;;;;;;20.27;64.85;95838.00;4916303;29;20037;-85
2022/06/19 05:57:44;;;;;;;11.43;3.38;;;;;;;20.34;65.19;95838.00;4916151;29;20048;-85
2022/06/19 06:00:12;;;;;;;7.15;3.40;;;;;;;20.46;64.94;95842.34;5104192;23;20039;-85
2022/06/19 06:02:39;;;;;;;12.93;3.63;;;;;;;20.50;62.55;95834.88;4901479;29;20045;-85
2022/06/19 06:05:07;;;;;;;12.32;3.50;;;;;;;20.54;65.35;95828.16;4916460;29;20068;-83
2022/06/19 06:07:34;;;;;;;11.57;4.97;;;;;;;20.53;63.10;95825.81;4916848;29;20102;-85
2022/06/19 06:10:01;;;;;;;11.38;4.38;;;;;;;20.64;62.89;95825.81;4903807;29;20052;-85
2022/06/19 06:15:05;;;;;;;12.13;3.83;;;;;;;20.91;62.30;95818.66;5210244;23;20027;-83
2022/06/19 06:17:31;;;;;;;9.13;3.25;;;;;;;21.10;61.84;95823.75;4917942;29;20056;-86
2022/06/19 06:19:58;;;;;;;7.95;3.13;;;;;;;21.21;61.01;95834.03;4916928;29;20041;-83
2022/06/19 06:22:25;;;;;;;9.25;3.38;;;;;;;21.30;61.47;95834.44;5057259;23;20104;-85
2022/06/19 06:24:52;;;;;;;8.02;3.35;;;;;;;21.31;59.67;95838.78;4919463;29;20052;-85
2022/06/19 06:27:20;;;;;;;13.35;4.03;;;;;;;21.48;59.85;95837.13;4932548;29;20048;-84
2022/06/19 06:29:47;;;;;;;18.10;4.20;;;;;;;21.58;57.93;95842.63;4928865;29;20076;-85
2022/06/19 06:32:25;;;;;;;10.30;3.50;;;;;;;21.72;60.76;95835.47;4927383;29;20135;-84
2022/06/19 06:34:51;;;;;;;15.02;3.70;;;;;;;21.84;59.10;95837.75;4921593;29;20128;-85
2022/06/19 06:37:18;;;;;;;13.68;4.15;;;;;;;21.86;57.46;95843.69;4931089;29;20052;-84
2022/06/19 06:39:45;;;;;;;11.77;3.80;;;;;;;22.00;57.93;95849.16;4940630;29;20036;-85
2022/06/19 06:42:12;;;;;;;12.18;3.83;;;;;;;22.06;58.25;95844.75;5102658;23;20108;-85
2022/06/19 06:44:39;;;;;;;18.02;3.92;;;;;;;22.16;58.30;95845.13;5111839;23;20060;-85
2022/06/19 06:47:07;;;;;;;18.55;4.35;;;;;;;22.19;57.39;95853.44;4901262;29;20616;-85
2022/06/19 06:49:35;;;;;;;15.38;3.67;;;;;;;22.31;57.77;95854.94;4928963;23;20045;-86
2022/06/19 06:52:07;;;;;;;15.63;4.07;;;;;;;22.46;58.28;95856.44;5193531;23;20032;-78
2022/06/19 06:54:36;;;;;;;12.45;3.83;;;;;;;22.59;57.90;95857.50;4921046;29;20048;-86
2022/06/19 06:59:38;;;;;;;17.45;4.75;;;;;;;22.72;57.12;95852.25;4977525;23;20060;-86
2022/06/19 07:02:07;;;;;;;20.13;4.72;;;;;;;22.85;57.53;95847.00;4982665;23;20016;-84
2022/06/19 07:07:17;;;;;;;14.60;4.35;;;;;;;23.20;55.23;95845.13;5079691;23;20044;-86
2022/06/19 07:09:43;;;;;;;13.10;3.75;;;;;;;23.35;56.24;95846.53;4930995;29;20055;-84
2022/06/19 07:12:11;;;;;;;10.77;3.58;;;;;;;23.53;55.81;95847.13;4931321;29;20048;-85
2022/06/19 07:14:38;;;;;;;12.07;3.70;;;;;;;23.69;56.39;95844.56;4932532;29;20063;-83
2022/06/19 07:17:06;;;;;;;9.38;3.55;;;;;;;23.83;56.06;95840.81;4932181;29;20059;-84
2022/06/19 07:19:33;;;;;;;13.07;3.85;;;;;;;23.92;55.99;95848.66;4936550;28;20048;-86
2022/06/19 07:22:02;;;;;;;17.83;4.53;;;;;;;24.16;53.65;95832.81;5002242;23;20071;-87
2022/06/19 07:24:28;;;;;;;18.38;3.80;;;;;;;24.35;53.24;95836.94;4939827;29;20031;-87
2022/06/19 07:26:55;;;;;;;16.70;4.28;;;;;;;24.43;52.67;95833.66;4941621;29;20039;-87
2022/06/19 07:31:47;;;;;;;15.27;4.28;;;;;;;24.58;49.48;95833.41;5859915;23;20071;-85
2022/06/19 07:34:14;;;;;;;15.43;4.00;;;;;;;24.73;50.68;95829.97;4935264;29;20113;-87
2022/06/19 07:36:43;;;;;;;17.63;4.25;;;;;;;24.76;49.74;95841.50;4923192;29;20086;-87
2022/06/19 07:39:12;;;;;;;16.58;4.55;;;;;;;24.85;49.15;95838.94;4919996;29;20048;-87
2022/06/19 07:41:40;;;;;;;15.50;4.20;;;;;;;24.97;48.80;95830.78;4952786;23;20119;-86
2022/06/19 07:44:07;;;;;;;16.00;4.05;;;;;;;25.10;49.32;95836.53;5601884;23;20030;-78
2022/06/19 08:02:15;;;;;;;19.48;4.82;;;;;;;25.77;47.98;95839.28;5981864;23;20232;-86
2022/06/19 08:13:57;;;;;;;12.45;4.05;;;;;;;26.36;50.80;95829.22;5714501;23;19927;-75
2022/06/19 08:19:00;;;;;;;14.80;3.67;;;;;;;27.38;46.33;95835.53;5959232;23;20014;-84
2022/06/19 08:24:05;;;;;;;24.10;4.30;;;;;;;27.54;45.93;95832.66;5727493;23;20052;-74
2022/06/19 08:26:32;;;;;;;19.27;3.95;;;;;;;27.82;47.86;95837.50;4931943;23;20047;-84
2022/06/19 08:29:00;;;;;;;18.45;4.85;;;;;;;28.07;46.92;95835.97;4905726;29;20104;-83
2022/06/19 08:31:27;;;;;;;17.17;4.13;;;;;;;28.16;46.30;95838.91;4905088;29;20064;-86
2022/06/19 08:33:54;;;;;;;17.63;4.90;;;;;;;28.39;49.10;95839.84;4897105;29;20059;-87
2022/06/19 08:36:22;;;;;;;11.52;3.92;;;;;;;28.54;48.55;95838.94;4891559;29;20049;-88
2022/06/19 08:38:52;;;;;;;18.48;4.97;;;;;;;28.58;49.01;95830.44;4897649;29;20051;-87
2022/06/19 08:41:41;;;;;;;13.70;4.15;;;;;;;28.79;46.93;95834.56;4877780;29;20056;-89
2022/06/19 08:44:36;;;;;;;16.77;4.57;;;;;;;28.99;50.03;95839.94;4896993;29;20049;-90
2022/06/19 08:47:17;;;;;;;16.20;3.92;;;;;;;29.14;45.44;95843.84;4889877;29;20096;-92
2022/06/19 08:49:57;;;;;;;13.88;4.55;;;;;;;29.20;43.56;95842.00;4895830;29;20049;-90
2022/06/19 08:52:37;;;;;;;18.90;4.35;;;;;;;29.37;44.84;95837.03;4896632;29;20068;-90
2022/06/19 08:55:12;;;;;;;14.18;3.88;;;;;;;29.37;45.02;95839.81;4896697;29;20056;-87
2022/06/19 08:57:50;;;;;;;15.05;5.18;;;;;;;29.35;45.67;95831.88;4896585;29;20530;-89
2022/06/19 09:00:24;;;;;;;16.77;4.35;;;;;;;29.62;44.63;95827.75;4896786;29;20505;-89
2022/06/19 09:03:03;;;;;;;14.45;4.30;;;;;;;29.80;48.84;95827.09;4897122;29;20060;-90
2022/06/19 09:05:44;;;;;;;16.77;5.00;;;;;;;29.76;42.72;95829.28;4897672;29;20049;-92
2022/06/19 09:08:39;;;;;;;13.57;4.82;;;;;;;30.02;42.75;95841.13;4883307;29;20053;-92
2022/06/19 09:11:22;;;;;;;17.30;4.88;;;;;;;30.14;43.06;95840.28;4877994;29;20052;-92
2022/06/19 09:13:59;;;;;;;18.83;4.88;;;;;;;30.26;44.83;95835.81;4878096;29;20066;-92
2022/06/19 09:16:33;;;;;;;16.60;4.25;;;;;;;30.32;41.89;95829.13;4877321;29;20045;-89
2022/06/19 09:19:09;;;;;;;16.77;5.10;;;;;;;30.30;40.10;95826.03;4878021;29;20056;-90
2022/06/19 09:21:48;;;;;;;15.23;4.63;;;;;;;30.41;44.64;95826.38;4878136;29;20051;-91
2022/06/19 09:24:30;;;;;;;14.40;4.20;;;;;;;30.45;40.77;95826.25;4878173;29;20053;-88
2022/06/19 09:26:59;;;;;;;19.50;4.60;;;;;;;30.46;41.61;95827.03;4871065;29;20049;-90
2022/06/19 09:29:33;;;;;;;21.13;4.80;;;;;;;30.52;41.84;95833.59;4878425;29;20049;-90
2022/06/19 09:32:07;;;;;;;17.00;4.50;;;;;;;30.74;41.95;95837.13;4878706;29;20072;-90
2022/06/19 09:34:39;;;;;;;13.23;4.25;;;;;;;30.82;41.89;95832.03;4878223;29;20065;-88
2022/06/19 09:37:15;;;;;;;11.40;4.28;;;;;;;30.93;40.29;95833.16;4878878;29;20056;-89
2022/06/19 09:39:48;;;;;;;18.52;4.93;;;;;;;30.90;38.72;95834.06;4875711;29;20053;-89
2022/06/19 09:42:21;;;;;;;20.67;5.03;;;;;;;30.89;38.30;95826.88;4877866;29;20045;-88
2022/06/19 09:44:53;;;;;;;15.45;4.07;;;;;;;30.79;37.99;95822.47;4863038;29;20060;-90
2022/06/19 09:47:24;;;;;;;17.83;4.33;;;;;;;30.79;38.13;95819.66;4877656;29;20052;-88
2022/06/19 09:49:57;;;;;;;20.87;5.47;;;;;;;30.67;39.49;95821.31;4878038;29;20056;-90
2022/06/19 09:52:28;;;;;;;13.55;4.75;;;;;;;30.49;36.89;95815.66;4877689;29;20045;-91
2022/06/19 09:55:04;;;;;;;20.30;4.40;;;;;;;30.54;38.01;95822.66;4877679;29;20057;-92
2022/06/19 09:57:35;;;;;;;19.98;4.57;;;;;;;30.45;37.92;95819.84;4877757;29;20049;-90
2022/06/19 10:00:09;;;;;;;20.80;5.45;;;;;;;30.68;39.98;95811.63;4877851;29;20049;-90
2022/06/19 10:02:44;;;;;;;13.90;4.32;;;;;;;30.81;41.96;95820.00;4878592;29;20049;-91
2022/06/19 10:05:19;;;;;;;16.95;4.47;;;;;;;31.00;38.44;95820.03;4878406;29;20053;-95
2022/06/19 10:07:51;;;;;;;19.58;4.78;;;;;;;30.94;39.38;95808.63;4878911;29;20586;-94
2022/06/19 10:10:27;;;;;;;18.15;5.10;;;;;;;31.09;39.41;95820.06;4881869;29;20136;-91
2022/06/19 10:12:56;;;;;;;20.73;5.10;;;;;;;31.03;35.92;95811.44;4881301;29;20049;-90
2022/06/19 10:15:29;;;;;;;20.35;5.30;;;;;;;31.04;40.49;95809.41;4880149;29;20056;-92
2022/06/19 10:18:00;;;;;;;15.65;4.68;;;;;;;31.21;41.60;95813.50;4872883;29;20049;-91
2022/06/19 10:20:32;;;;;;;16.65;4.57;;;;;;;31.30;39.13;95802.28;4880544;29;20045;-90
2022/06/19 10:23:05;;;;;;;18.00;4.35;;;;;;;31.35;37.55;95807.28;4880736;29;20544;-89
2022/06/19 10:25:55;;;;;;;16.70;5.50;;;;;;;31.16;42.02;95800.06;4881037;29;20061;-91
2022/06/19 10:28:56;;;;;;;15.63;4.55;;;;;;;31.25;35.53;95796.47;4878880;29;20057;-89
2022/06/19 10:31:36;;;;;;;10.73;4.90;;;;;;;31.20;34.56;95800.69;4867241;29;20048;-89
2022/06/19 10:34:18;;;;;;;18.48;5.90;;;;;;;31.00;33.71;95791.91;4880011;29;20049;-88
2022/06/19 10:36:48;;;;;;;;;;;;;;;31.24;37.73;95789.28;4880294;29;20562;-89
2022/06/19 10:39:28;;;;;;;17.58;4.57;;;;;;;31.20;35.32;95789.44;4880048;29;19924;-88
2022/06/19 10:42:06;;;;;;;19.67;5.43;;;;;;;31.27;37.83;95789.19;4881179;29;20060;-89
2022/06/19 10:44:56;;;;;;;15.50;5.22;;;;;;;31.39;35.57;95791.03;4879519;29;20525;-90
2022/06/19 10:47:34;;;;;;;18.58;4.47;;;;;;;31.42;34.68;95787.28;4879108;29;20187;-89
2022/06/19 10:50:10;;;;;;;13.05;4.90;;;;;;;31.51;36.50;95785.72;4879528;29;20052;-88
2022/06/19 10:52:45;;;;;;;15.93;5.65;;;;;;;31.54;37.49;95784.78;4879298;29;20067;-92
2022/06/19 10:55:25;;;;;;;14.20;5.00;;;;;;;31.55;37.58;95786.34;4880209;29;20052;-93
2022/06/19 10:58:04;;;;;;;13.77;5.30;;;;;;;31.67;35.47;95782.56;4880230;29;20045;-90
2022/06/19 11:00:31;;;;;;;19.30;5.72;;;;;;;31.49;38.55;95772.13;4875618;29;20051;-90
2022/06/19 11:05:53;;;;;;;20.90;5.85;;;;;;;31.67;33.86;95774.13;4879929;29;20056;-90
2022/06/19 11:08:22;;;;;;;16.95;5.45;;;;;;;31.75;38.69;95771.78;4879202;29;20505;-91
2022/06/19 11:10:50;;;;;;;14.40;6.18;;;;;;;31.74;35.90;95768.19;4880164;29;20053;-89
2022/06/19 11:13:18;;;;;;;16.50;5.75;;;;;;;31.76;39.71;95768.50;4878458;29;20049;-89
2022/06/19 11:15:48;;;;;;;21.98;5.78;;;;;;;31.69;33.16;95768.81;4879640;29;20411;-90
2022/06/19 11:18:17;;;;;;;17.70;5.85;;;;;;;31.58;34.75;95757.25;4879107;29;20117;-90
2022/06/19 11:20:59;;;;;;;16.40;5.53;;;;;;;31.71;35.10;95755.06;4879035;29;20051;-89
2022/06/19 11:23:30;;;;;;;14.45;6.20;;;;;;;31.74;34.40;95764.56;4878513;29;20068;-92
2022/06/19 11:26:06;;;;;;;15.30;6.10;;;;;;;31.86;34.23;95761.63;4878882;29;20073;-89
2022/06/19 11:29:01;;;;;;;18.83;5.53;;;;;;;31.76;36.51;95762.88;4879177;29;20052;-88
2022/06/19 11:31:30;;;;;;;15.38;5.93;;;;;;;31.72;37.01;95756.59;4878660;29;20055;-89
2022/06/19 11:34:02;;;;;;;13.77;5.85;;;;;;;31.77;39.50;95755.97;4878690;29;20056;-88
2022/06/19 11:36:33;;;;;;;17.20;6.68;;;;;;;31.89;37.41;95755.03;4878746;29;20132;-92
2022/06/19 11:39:21;;;;;;;15.30;6.32;;;;;;;31.72;38.78;95753.00;4878881;29;20056;-89
2022/06/19 11:41:47;;;;;;;13.52;5.63;;;;;;;31.80;37.44;95751.44;4880039;29;20053;-89
2022/06/19 11:44:18;;;;;;;13.57;5.50;;;;;;;31.82;36.54;95755.38;4877973;29;20057;-88
2022/06/19 11:46:50;;;;;;;17.85;6.00;;;;;;;31.84;35.13;95764.13;4878122;29;20044;-87
2022/06/19 11:49:23;;;;;;;18.52;6.50;;;;;;;31.80;37.61;95757.84;4878252;29;20053;-87
2022/06/19 11:51:51;;;;;;;21.50;6.40;;;;;;;31.74;37.34;95747.69;4878526;29;20052;-88
2022/06/19 11:54:27;;;;;;;12.93;6.05;;;;;;;31.84;39.50;95750.03;4877688;29;20048;-88
2022/06/19 11:56:54;;;;;;;16.83;6.40;;;;;;;31.78;37.48;95748.31;4878118;29;20048;-88
2022/06/19 11:59:31;;;;;;;17.17;6.63;;;;;;;31.78;34.30;95749.09;4877888;29;20223;-89
2022/06/19 12:01:58;;;;;;;15.57;6.28;;;;;;;31.90;36.81;95750.19;4878601;29;20053;-93
2022/06/19 12:04:30;;;;;;;19.40;6.80;;;;;;;31.87;37.30;95746.28;4879262;29;20056;-88
2022/06/19 12:07:00;;;;;;;13.23;6.00;;;;;;;31.94;36.21;95739.53;4878123;29;20417;-87
2022/06/19 12:09:35;;;;;;;18.42;7.00;;;;;;;31.90;38.41;95744.56;4877943;29;20127;-93
2022/06/19 12:12:07;;;;;;;15.25;6.22;;;;;;;31.90;37.09;95745.34;4879637;29;20524;-85
2022/06/19 12:14:38;;;;;;;15.50;5.97;;;;;;;32.00;37.08;95746.06;4878483;29;20056;-91
2022/06/19 12:17:20;;;;;;;16.02;6.20;;;;;;;31.91;35.95;95746.91;4878766;29;20056;-92
2022/06/19 12:19:55;;;;;;;20.42;6.43;;;;;;;32.05;34.90;95739.81;4877988;29;20060;-88
2022/06/19 12:22:30;;;;;;;11.40;6.38;;;;;;;31.88;37.72;95742.22;4877040;29;20049;-88
2022/06/19 12:25:04;;;;;;;17.27;7.03;;;;;;;31.89;38.36;95738.13;4877201;29;20056;-88
2022/06/19 12:27:39;;;;;;;17.35;6.05;;;;;;;31.87;35.75;95735.03;4876954;29;20409;-87
2022/06/19 12:30:18;;;;;;;16.20;6.00;;;;;;;31.96;38.15;95722.97;4876720;29;20120;-88
2022/06/19 12:32:47;;;;;;;17.48;6.35;;;;;;;31.88;36.01;95721.72;4874180;29;20041;-88
2022/06/19 12:35:21;;;;;;;11.43;6.10;;;;;;;31.92;35.48;95722.34;4876616;29;20064;-88
2022/06/19 12:37:48;;;;;;;14.95;6.18;;;;;;;31.94;37.75;95723.41;4877185;29;20049;-87
2022/06/19 12:40:18;;;;;;;11.55;5.53;;;;;;;32.00;37.21;95719.97;4878418;29;20049;-88
2022/06/19 12:42:54;;;;;;;16.92;6.65;;;;;;;32.02;37.52;95714.66;4875322;29;20128;-88
2022/06/19 12:45:36;;;;;;;16.35;6.25;;;;;;;31.95;38.70;95719.38;4876445;29;20990;-88
2022/06/19 12:48:19;;;;;;;16.70;5.95;;;;;;;31.87;36.82;95718.13;4876398;29;20053;-86
2022/06/19 12:50:49;;;;;;;18.08;6.88;;;;;;;31.86;37.94;95705.31;4876812;29;20057;-87
2022/06/19 12:53:43;;;;;;;11.98;6.13;;;;;;;31.94;35.08;95706.53;4876260;29;20045;-87
2022/06/19 12:56:18;;;;;;;10.02;5.32;;;;;;;31.88;37.57;95697.16;4876230;29;20053;-86
2022/06/19 12:59:02;;;;;;;14.40;6.28;;;;;;;31.80;33.90;95695.94;4876341;29;20068;-86